sensor_id;sensor_type;location;lat;lon;timestamp;temperature;humidity
22145;DHT22;11238;48.730;11.566;2023-09-19T00:01:20;16.50;99.90
22145;DHT22;11238;48.730;11.566;2023-09-19T00:03:47;16.60;99.90
22145;DHT22;11238;48.730;11.566;2023-09-19T00:06:13;16.60;99.90
22145;DHT22;11238;48.730;11.566;2023-09-19T00:08:41;16.60;99.90
22145;DHT22;11238;48.730;11.566;2023-09-19T00:11:10;16.70;99.90
22145;DHT22;11238;48.730;11.566;2023-09-19T00:13:37;16.70;99.90
22145;DHT22;11238;48.730;11.566;2023-09-19T00:16:12;16.70;99.90
22145;DHT22;11238;48.730;11.566;2023-09-19T00:18:38;16.70;99.90
22145;DHT22;11238;48.730;11.566;2023-09-19T00:21:04;16.70;99.90
22145;DHT22;11238;48.730;11.566;2023-09-19T00:23:33;16.70;99.90
22145;DHT22;11238;48.730;11.566;2023-09-19T00:26:00;16.70;99.90
22145;DHT22;11238;48.730;11.566;2023-09-19T00:28:27;16.70;99.90
22145;DHT22;11238;48.730;11.566;2023-09-19T00:30:53;16.70;99.90
22145;DHT22;11238;48.730;11.566;2023-09-19T00:33:22;16.70;99.90
22145;DHT22;11238;48.730;11.566;2023-09-19T00:35:49;16.80;99.90
22145;DHT22;11238;48.730;11.566;2023-09-19T00:38:15;16.80;99.90
22145;DHT22;11238;48.730;11.566;2023-09-19T00:40:47;16.80;99.90
22145;DHT22;11238;48.730;11.566;2023-09-19T00:43:13;16.80;99.90
22145;DHT22;11238;48.730;11.566;2023-09-19T00:45:43;16.80;99.90
22145;DHT22;11238;48.730;11.566;2023-09-19T00:48:09;16.80;99.90
22145;DHT22;11238;48.730;11.566;2023-09-19T00:50:36;16.80;99.90
22145;DHT22;11238;48.730;11.566;2023-09-19T00:53:02;16.80;99.90
22145;DHT22;11238;48.730;11.566;2023-09-19T00:55:34;16.80;99.90
22145;DHT22;11238;48.730;11.566;2023-09-19T00:58:03;16.90;99.90
22145;DHT22;11238;48.730;11.566;2023-09-19T01:00:32;16.90;99.90
22145;DHT22;11238;48.730;11.566;2023-09-19T01:03:00;16.90;99.90
22145;DHT22;11238;48.730;11.566;2023-09-19T01:05:29;16.90;99.90
22145;DHT22;11238;48.730;11.566;2023-09-19T01:07:56;16.90;99.90
22145;DHT22;11238;48.730;11.566;2023-09-19T01:10:22;16.90;99.90
22145;DHT22;11238;48.730;11.566;2023-09-19T01:13:08;16.90;99.90
22145;DHT22;11238;48.730;11.566;2023-09-19T01:20:57;16.90;99.90
22145;DHT22;11238;48.730;11.566;2023-09-19T01:26:21;16.90;99.90
22145;DHT22;11238;48.730;11.566;2023-09-19T01:29:08;16.90;99.90
22145;DHT22;11238;48.730;11.566;2023-09-19T01:32:05;17.00;99.90
22145;DHT22;11238;48.730;11.566;2023-09-19T01:34:49;16.90;99.90
22145;DHT22;11238;48.730;11.566;2023-09-19T01:37:17;17.00;99.90
22145;DHT22;11238;48.730;11.566;2023-09-19T01:40:11;17.00;99.90
22145;DHT22;11238;48.730;11.566;2023-09-19T01:42:59;17.00;99.90
22145;DHT22;11238;48.730;11.566;2023-09-19T01:45:59;17.00;99.90
22145;DHT22;11238;48.730;11.566;2023-09-19T01:51:09;17.00;99.90
22145;DHT22;11238;48.730;11.566;2023-09-19T01:53:53;17.00;99.90
22145;DHT22;11238;48.730;11.566;2023-09-19T01:56:47;17.00;99.90
22145;DHT22;11238;48.730;11.566;2023-09-19T01:59:17;17.00;99.90
22145;DHT22;11238;48.730;11.566;2023-09-19T02:01:48;17.00;99.90
22145;DHT22;11238;48.730;11.566;2023-09-19T02:04:15;17.00;99.90
22145;DHT22;11238;48.730;11.566;2023-09-19T02:06:42;17.00;99.90
22145;DHT22;11238;48.730;11.566;2023-09-19T02:09:08;17.00;99.90
22145;DHT22;11238;48.730;11.566;2023-09-19T02:11:35;17.00;99.90
22145;DHT22;11238;48.730;11.566;2023-09-19T02:14:02;17.00;99.90
22145;DHT22;11238;48.730;11.566;2023-09-19T02:16:30;17.00;99.90
22145;DHT22;11238;48.730;11.566;2023-09-19T02:18:55;17.00;99.90
22145;DHT22;11238;48.730;11.566;2023-09-19T02:21:22;17.00;99.90
22145;DHT22;11238;48.730;11.566;2023-09-19T02:23:48;17.00;99.90
22145;DHT22;11238;48.730;11.566;2023-09-19T02:26:14;17.00;99.90
22145;DHT22;11238;48.730;11.566;2023-09-19T02:28:40;17.00;99.90
22145;DHT22;11238;48.730;11.566;2023-09-19T02:31:08;17.00;99.90
22145;DHT22;11238;48.730;11.566;2023-09-19T02:33:33;17.00;99.90
22145;DHT22;11238;48.730;11.566;2023-09-19T02:36:01;17.00;99.90
22145;DHT22;11238;48.730;11.566;2023-09-19T02:38:30;16.90;99.90
22145;DHT22;11238;48.730;11.566;2023-09-19T02:40:56;16.90;99.90
22145;DHT22;11238;48.730;11.566;2023-09-19T02:43:22;17.00;99.90
22145;DHT22;11238;48.730;11.566;2023-09-19T02:45:49;16.90;99.90
22145;DHT22;11238;48.730;11.566;2023-09-19T02:48:16;16.90;99.90
22145;DHT22;11238;48.730;11.566;2023-09-19T02:50:42;16.90;99.90
22145;DHT22;11238;48.730;11.566;2023-09-19T02:53:30;16.90;99.90
22145;DHT22;11238;48.730;11.566;2023-09-19T02:55:59;16.90;99.90
22145;DHT22;11238;48.730;11.566;2023-09-19T02:58:27;16.80;99.90
22145;DHT22;11238;48.730;11.566;2023-09-19T03:00:53;16.80;99.90
22145;DHT22;11238;48.730;11.566;2023-09-19T03:03:20;16.80;99.90
22145;DHT22;11238;48.730;11.566;2023-09-19T03:05:47;16.80;99.90
22145;DHT22;11238;48.730;11.566;2023-09-19T03:08:14;16.80;99.90
22145;DHT22;11238;48.730;11.566;2023-09-19T03:10:41;16.80;99.90
22145;DHT22;11238;48.730;11.566;2023-09-19T03:13:07;16.70;99.90
22145;DHT22;11238;48.730;11.566;2023-09-19T03:15:35;16.70;99.90
22145;DHT22;11238;48.730;11.566;2023-09-19T03:18:05;16.70;99.90
22145;DHT22;11238;48.730;11.566;2023-09-19T03:20:31;16.70;99.90
22145;DHT22;11238;48.730;11.566;2023-09-19T03:22:58;16.70;99.90
22145;DHT22;11238;48.730;11.566;2023-09-19T03:25:27;16.70;99.90
22145;DHT22;11238;48.730;11.566;2023-09-19T03:27:56;16.70;99.90
22145;DHT22;11238;48.730;11.566;2023-09-19T03:30:24;16.70;99.90
22145;DHT22;11238;48.730;11.566;2023-09-19T03:32:50;16.60;99.90
22145;DHT22;11238;48.730;11.566;2023-09-19T03:35:17;16.60;99.90
22145;DHT22;11238;48.730;11.566;2023-09-19T03:37:44;16.70;99.90
22145;DHT22;11238;48.730;11.566;2023-09-19T03:40:11;16.70;99.90
22145;DHT22;11238;48.730;11.566;2023-09-19T03:42:39;16.70;99.90
22145;DHT22;11238;48.730;11.566;2023-09-19T03:45:06;16.70;99.90
22145;DHT22;11238;48.730;11.566;2023-09-19T03:47:32;16.70;99.90
22145;DHT22;11238;48.730;11.566;2023-09-19T03:50:00;16.70;99.90
22145;DHT22;11238;48.730;11.566;2023-09-19T03:52:26;16.60;99.90
22145;DHT22;11238;48.730;11.566;2023-09-19T03:54:52;16.70;99.90
22145;DHT22;11238;48.730;11.566;2023-09-19T03:57:18;16.60;99.90
22145;DHT22;11238;48.730;11.566;2023-09-19T03:59:46;16.70;99.90
22145;DHT22;11238;48.730;11.566;2023-09-19T04:02:13;16.70;99.90
22145;DHT22;11238;48.730;11.566;2023-09-19T04:04:49;16.60;99.90
22145;DHT22;11238;48.730;11.566;2023-09-19T04:07:15;16.70;99.90
22145;DHT22;11238;48.730;11.566;2023-09-19T04:09:41;16.60;99.90
22145;DHT22;11238;48.730;11.566;2023-09-19T04:12:07;16.70;99.90
22145;DHT22;11238;48.730;11.566;2023-09-19T04:14:34;16.60;99.90
22145;DHT22;11238;48.730;11.566;2023-09-19T04:17:00;16.60;99.90
22145;DHT22;11238;48.730;11.566;2023-09-19T04:19:27;16.60;99.90
22145;DHT22;11238;48.730;11.566;2023-09-19T04:21:52;16.60;99.90
22145;DHT22;11238;48.730;11.566;2023-09-19T04:24:19;16.70;99.90
22145;DHT22;11238;48.730;11.566;2023-09-19T04:26:45;16.70;99.90
22145;DHT22;11238;48.730;11.566;2023-09-19T04:29:11;16.70;99.90
22145;DHT22;11238;48.730;11.566;2023-09-19T04:32:01;16.70;99.90
22145;DHT22;11238;48.730;11.566;2023-09-19T04:34:31;16.70;99.90
22145;DHT22;11238;48.730;11.566;2023-09-19T04:36:57;16.70;99.90
22145;DHT22;11238;48.730;11.566;2023-09-19T04:39:25;16.70;99.90
22145;DHT22;11238;48.730;11.566;2023-09-19T04:41:52;16.70;99.90
22145;DHT22;11238;48.730;11.566;2023-09-19T04:44:18;16.70;99.90
22145;DHT22;11238;48.730;11.566;2023-09-19T04:46:45;16.70;99.90
22145;DHT22;11238;48.730;11.566;2023-09-19T04:49:12;16.70;99.90
22145;DHT22;11238;48.730;11.566;2023-09-19T04:51:38;16.70;99.90
22145;DHT22;11238;48.730;11.566;2023-09-19T04:54:04;16.70;99.90
22145;DHT22;11238;48.730;11.566;2023-09-19T04:56:30;16.80;99.90
22145;DHT22;11238;48.730;11.566;2023-09-19T04:59:01;16.80;99.90
22145;DHT22;11238;48.730;11.566;2023-09-19T05:01:27;16.80;99.90
22145;DHT22;11238;48.730;11.566;2023-09-19T05:03:52;16.80;99.90
22145;DHT22;11238;48.730;11.566;2023-09-19T05:06:22;16.80;99.90
22145;DHT22;11238;48.730;11.566;2023-09-19T05:08:48;16.80;99.90
22145;DHT22;11238;48.730;11.566;2023-09-19T05:11:21;16.80;99.90
22145;DHT22;11238;48.730;11.566;2023-09-19T05:13:49;16.80;99.90
22145;DHT22;11238;48.730;11.566;2023-09-19T05:16:18;16.80;99.90
22145;DHT22;11238;48.730;11.566;2023-09-19T05:18:45;16.80;99.90
22145;DHT22;11238;48.730;11.566;2023-09-19T05:21:10;16.70;99.90
22145;DHT22;11238;48.730;11.566;2023-09-19T05:23:38;16.70;99.90
22145;DHT22;11238;48.730;11.566;2023-09-19T05:26:03;16.70;99.90
22145;DHT22;11238;48.730;11.566;2023-09-19T05:28:31;16.70;99.90
22145;DHT22;11238;48.730;11.566;2023-09-19T05:31:01;16.70;99.90
22145;DHT22;11238;48.730;11.566;2023-09-19T05:33:28;16.70;99.90
22145;DHT22;11238;48.730;11.566;2023-09-19T05:35:53;16.80;99.90
22145;DHT22;11238;48.730;11.566;2023-09-19T05:38:19;16.80;99.90
22145;DHT22;11238;48.730;11.566;2023-09-19T05:40:46;16.80;99.90
22145;DHT22;11238;48.730;11.566;2023-09-19T05:43:12;16.80;99.90
22145;DHT22;11238;48.730;11.566;2023-09-19T05:45:40;16.80;99.90
22145;DHT22;11238;48.730;11.566;2023-09-19T05:48:13;16.70;99.90
22145;DHT22;11238;48.730;11.566;2023-09-19T05:50:42;16.70;99.90
22145;DHT22;11238;48.730;11.566;2023-09-19T05:53:09;16.70;99.90
22145;DHT22;11238;48.730;11.566;2023-09-19T05:55:37;16.80;99.90
22145;DHT22;11238;48.730;11.566;2023-09-19T05:58:03;16.80;99.90
22145;DHT22;11238;48.730;11.566;2023-09-19T06:00:29;16.90;99.90
22145;DHT22;11238;48.730;11.566;2023-09-19T06:02:56;16.90;99.90
22145;DHT22;11238;48.730;11.566;2023-09-19T06:05:26;17.00;99.90
22145;DHT22;11238;48.730;11.566;2023-09-19T06:07:53;17.10;99.90
22145;DHT22;11238;48.730;11.566;2023-09-19T06:10:19;17.10;99.90
22145;DHT22;11238;48.730;11.566;2023-09-19T06:12:48;17.20;99.90
22145;DHT22;11238;48.730;11.566;2023-09-19T06:15:15;17.20;99.90
22145;DHT22;11238;48.730;11.566;2023-09-19T06:20:15;17.20;99.90
22145;DHT22;11238;48.730;11.566;2023-09-19T06:22:45;17.30;99.90
22145;DHT22;11238;48.730;11.566;2023-09-19T06:25:13;17.40;99.90
22145;DHT22;11238;48.730;11.566;2023-09-19T06:27:49;17.50;99.90
22145;DHT22;11238;48.730;11.566;2023-09-19T06:30:38;17.50;99.90
22145;DHT22;11238;48.730;11.566;2023-09-19T06:33:07;17.50;99.90
22145;DHT22;11238;48.730;11.566;2023-09-19T06:35:34;17.60;99.90
22145;DHT22;11238;48.730;11.566;2023-09-19T06:38:02;17.60;99.90
22145;DHT22;11238;48.730;11.566;2023-09-19T06:40:29;17.60;99.90
22145;DHT22;11238;48.730;11.566;2023-09-19T06:42:56;17.70;99.90
22145;DHT22;11238;48.730;11.566;2023-09-19T06:45:23;17.60;99.90
22145;DHT22;11238;48.730;11.566;2023-09-19T06:47:52;17.60;99.90
22145;DHT22;11238;48.730;11.566;2023-09-19T06:50:21;17.60;99.90
22145;DHT22;11238;48.730;11.566;2023-09-19T06:52:50;17.60;99.90
22145;DHT22;11238;48.730;11.566;2023-09-19T06:55:18;17.70;99.90
22145;DHT22;11238;48.730;11.566;2023-09-19T06:57:45;17.80;99.90
22145;DHT22;11238;48.730;11.566;2023-09-19T07:00:13;17.90;99.90
22145;DHT22;11238;48.730;11.566;2023-09-19T07:03:07;17.90;99.90
22145;DHT22;11238;48.730;11.566;2023-09-19T07:05:34;18.00;99.90
22145;DHT22;11238;48.730;11.566;2023-09-19T07:08:03;18.00;99.90
22145;DHT22;11238;48.730;11.566;2023-09-19T07:10:29;18.00;99.90
22145;DHT22;11238;48.730;11.566;2023-09-19T07:13:03;18.10;99.90
22145;DHT22;11238;48.730;11.566;2023-09-19T07:15:33;18.10;99.90
22145;DHT22;11238;48.730;11.566;2023-09-19T07:18:01;18.10;99.90
22145;DHT22;11238;48.730;11.566;2023-09-19T07:20:27;18.10;99.90
22145;DHT22;11238;48.730;11.566;2023-09-19T07:22:55;18.30;99.90
22145;DHT22;11238;48.730;11.566;2023-09-19T07:25:21;18.40;99.90
22145;DHT22;11238;48.730;11.566;2023-09-19T07:27:47;18.40;99.90
22145;DHT22;11238;48.730;11.566;2023-09-19T07:30:13;18.40;99.90
22145;DHT22;11238;48.730;11.566;2023-09-19T07:32:40;18.40;99.90
22145;DHT22;11238;48.730;11.566;2023-09-19T07:35:06;18.40;99.90
22145;DHT22;11238;48.730;11.566;2023-09-19T07:37:32;18.40;99.90
22145;DHT22;11238;48.730;11.566;2023-09-19T07:40:03;18.40;99.90
22145;DHT22;11238;48.730;11.566;2023-09-19T07:42:38;18.50;99.90
22145;DHT22;11238;48.730;11.566;2023-09-19T07:45:09;18.60;99.90
22145;DHT22;11238;48.730;11.566;2023-09-19T07:47:44;18.60;99.90
22145;DHT22;11238;48.730;11.566;2023-09-19T07:50:11;18.60;99.90
22145;DHT22;11238;48.730;11.566;2023-09-19T07:52:37;18.70;99.90
22145;DHT22;11238;48.730;11.566;2023-09-19T07:55:08;18.70;99.90
22145;DHT22;11238;48.730;11.566;2023-09-19T07:57:35;18.80;99.90
22145;DHT22;11238;48.730;11.566;2023-09-19T08:00:01;18.90;99.90
22145;DHT22;11238;48.730;11.566;2023-09-19T08:02:37;18.90;99.90
22145;DHT22;11238;48.730;11.566;2023-09-19T08:05:04;19.00;99.90
22145;DHT22;11238;48.730;11.566;2023-09-19T08:07:39;19.10;99.90
22145;DHT22;11238;48.730;11.566;2023-09-19T08:10:07;19.10;99.90
22145;DHT22;11238;48.730;11.566;2023-09-19T08:12:41;19.10;99.90
22145;DHT22;11238;48.730;11.566;2023-09-19T08:15:18;19.10;99.90
22145;DHT22;11238;48.730;11.566;2023-09-19T08:17:47;19.20;99.90
22145;DHT22;11238;48.730;11.566;2023-09-19T08:20:14;19.40;99.90
22145;DHT22;11238;48.730;11.566;2023-09-19T08:22:48;19.40;99.90
22145;DHT22;11238;48.730;11.566;2023-09-19T08:25:18;19.40;99.90
22145;DHT22;11238;48.730;11.566;2023-09-19T08:27:44;19.50;99.90
22145;DHT22;11238;48.730;11.566;2023-09-19T08:30:15;19.50;99.90
22145;DHT22;11238;48.730;11.566;2023-09-19T08:32:42;19.40;99.90
22145;DHT22;11238;48.730;11.566;2023-09-19T08:35:11;19.40;99.90
22145;DHT22;11238;48.730;11.566;2023-09-19T08:37:38;19.60;99.90
22145;DHT22;11238;48.730;11.566;2023-09-19T08:40:04;19.70;99.90
22145;DHT22;11238;48.730;11.566;2023-09-19T08:42:31;19.80;99.90
22145;DHT22;11238;48.730;11.566;2023-09-19T08:45:13;19.80;99.90
22145;DHT22;11238;48.730;11.566;2023-09-19T08:48:00;19.80;99.90
22145;DHT22;11238;48.730;11.566;2023-09-19T08:50:29;19.70;99.90
22145;DHT22;11238;48.730;11.566;2023-09-19T08:53:00;19.60;99.90
22145;DHT22;11238;48.730;11.566;2023-09-19T08:55:28;19.40;99.90
22145;DHT22;11238;48.730;11.566;2023-09-19T08:58:03;19.40;99.90
22145;DHT22;11238;48.730;11.566;2023-09-19T09:00:30;19.20;99.90
22145;DHT22;11238;48.730;11.566;2023-09-19T09:02:57;19.10;99.90
22145;DHT22;11238;48.730;11.566;2023-09-19T09:05:24;18.90;99.90
22145;DHT22;11238;48.730;11.566;2023-09-19T09:07:50;18.80;99.90
22145;DHT22;11238;48.730;11.566;2023-09-19T09:10:23;18.80;99.90
22145;DHT22;11238;48.730;11.566;2023-09-19T09:12:52;18.40;99.90
22145;DHT22;11238;48.730;11.566;2023-09-19T09:15:19;18.20;99.90
22145;DHT22;11238;48.730;11.566;2023-09-19T09:17:47;18.00;99.90
22145;DHT22;11238;48.730;11.566;2023-09-19T09:20:19;17.80;99.90
22145;DHT22;11238;48.730;11.566;2023-09-19T09:22:55;17.70;99.90
22145;DHT22;11238;48.730;11.566;2023-09-19T09:25:22;17.70;99.90
22145;DHT22;11238;48.730;11.566;2023-09-19T09:28:01;17.70;99.90
22145;DHT22;11238;48.730;11.566;2023-09-19T09:30:35;17.70;99.90
22145;DHT22;11238;48.730;11.566;2023-09-19T09:33:13;17.80;99.90
22145;DHT22;11238;48.730;11.566;2023-09-19T09:35:50;17.80;99.90
22145;DHT22;11238;48.730;11.566;2023-09-19T09:38:22;17.90;99.90
22145;DHT22;11238;48.730;11.566;2023-09-19T09:40:57;18.20;99.90
22145;DHT22;11238;48.730;11.566;2023-09-19T09:43:37;18.40;99.90
22145;DHT22;11238;48.730;11.566;2023-09-19T09:46:14;18.20;99.90
22145;DHT22;11238;48.730;11.566;2023-09-19T09:49:03;17.90;99.90
22145;DHT22;11238;48.730;11.566;2023-09-19T09:52:05;17.70;99.90
22145;DHT22;11238;48.730;11.566;2023-09-19T09:54:34;17.40;99.90
22145;DHT22;11238;48.730;11.566;2023-09-19T09:57:06;17.30;99.90
22145;DHT22;11238;48.730;11.566;2023-09-19T09:59:56;17.20;99.90
22145;DHT22;11238;48.730;11.566;2023-09-19T10:02:38;17.00;99.90
22145;DHT22;11238;48.730;11.566;2023-09-19T10:05:18;17.00;99.90
22145;DHT22;11238;48.730;11.566;2023-09-19T10:07:55;16.90;99.90
22145;DHT22;11238;48.730;11.566;2023-09-19T10:10:40;17.00;99.90
22145;DHT22;11238;48.730;11.566;2023-09-19T10:13:11;17.10;99.90
22145;DHT22;11238;48.730;11.566;2023-09-19T10:15:47;17.10;99.90
22145;DHT22;11238;48.730;11.566;2023-09-19T10:18:21;17.20;99.90
22145;DHT22;11238;48.730;11.566;2023-09-19T10:20:47;17.30;99.90
22145;DHT22;11238;48.730;11.566;2023-09-19T10:23:17;17.40;99.90
22145;DHT22;11238;48.730;11.566;2023-09-19T10:25:48;17.40;99.90
22145;DHT22;11238;48.730;11.566;2023-09-19T10:28:16;17.40;99.90
22145;DHT22;11238;48.730;11.566;2023-09-19T10:30:49;17.50;99.90
22145;DHT22;11238;48.730;11.566;2023-09-19T10:33:22;17.60;99.90
22145;DHT22;11238;48.730;11.566;2023-09-19T10:35:52;17.70;99.90
22145;DHT22;11238;48.730;11.566;2023-09-19T10:38:23;17.80;99.90
22145;DHT22;11238;48.730;11.566;2023-09-19T10:40:52;17.90;99.90
22145;DHT22;11238;48.730;11.566;2023-09-19T10:43:21;18.00;99.90
22145;DHT22;11238;48.730;11.566;2023-09-19T10:45:51;18.20;99.90
22145;DHT22;11238;48.730;11.566;2023-09-19T10:48:19;18.30;99.90
22145;DHT22;11238;48.730;11.566;2023-09-19T10:50:53;18.40;99.90
22145;DHT22;11238;48.730;11.566;2023-09-19T10:53:26;18.50;99.90
22145;DHT22;11238;48.730;11.566;2023-09-19T10:55:56;18.70;99.90
22145;DHT22;11238;48.730;11.566;2023-09-19T10:58:31;18.90;99.90
22145;DHT22;11238;48.730;11.566;2023-09-19T11:01:04;19.20;99.90
22145;DHT22;11238;48.730;11.566;2023-09-19T11:03:38;19.60;99.90
22145;DHT22;11238;48.730;11.566;2023-09-19T11:06:15;19.90;99.90
22145;DHT22;11238;48.730;11.566;2023-09-19T11:08:57;20.00;99.90
22145;DHT22;11238;48.730;11.566;2023-09-19T11:11:39;20.20;99.90
22145;DHT22;11238;48.730;11.566;2023-09-19T11:14:15;20.30;99.90
22145;DHT22;11238;48.730;11.566;2023-09-19T11:30:42;20.10;99.90
22145;DHT22;11238;48.730;11.566;2023-09-19T11:33:26;20.20;99.90
22145;DHT22;11238;48.730;11.566;2023-09-19T11:36:16;20.70;99.90
22145;DHT22;11238;48.730;11.566;2023-09-19T11:49:32;21.60;99.90
22145;DHT22;11238;48.730;11.566;2023-09-19T11:52:00;21.70;99.90
22145;DHT22;11238;48.730;11.566;2023-09-19T11:54:35;21.70;99.80
22145;DHT22;11238;48.730;11.566;2023-09-19T11:57:03;21.80;99.90
22145;DHT22;11238;48.730;11.566;2023-09-19T11:59:30;21.50;99.00
22145;DHT22;11238;48.730;11.566;2023-09-19T12:01:57;21.80;99.90
22145;DHT22;11238;48.730;11.566;2023-09-19T12:04:41;22.10;99.90
22145;DHT22;11238;48.730;11.566;2023-09-19T12:07:11;21.90;98.70
22145;DHT22;11238;48.730;11.566;2023-09-19T12:09:45;22.10;99.00
22145;DHT22;11238;48.730;11.566;2023-09-19T12:12:28;22.00;98.00
22145;DHT22;11238;48.730;11.566;2023-09-19T12:14:56;22.00;97.40
22145;DHT22;11238;48.730;11.566;2023-09-19T12:17:39;22.10;97.70
22145;DHT22;11238;48.730;11.566;2023-09-19T12:20:07;22.00;97.70
22145;DHT22;11238;48.730;11.566;2023-09-19T12:22:43;22.10;98.90
22145;DHT22;11238;48.730;11.566;2023-09-19T12:25:10;22.20;97.40
22145;DHT22;11238;48.730;11.566;2023-09-19T12:27:44;22.20;96.90
22145;DHT22;11238;48.730;11.566;2023-09-19T12:30:12;22.20;96.90
22145;DHT22;11238;48.730;11.566;2023-09-19T12:32:40;22.20;96.80
22145;DHT22;11238;48.730;11.566;2023-09-19T12:35:08;22.50;96.70
22145;DHT22;11238;48.730;11.566;2023-09-19T12:37:45;22.30;96.30
22145;DHT22;11238;48.730;11.566;2023-09-19T12:40:21;22.50;95.60
22145;DHT22;11238;48.730;11.566;2023-09-19T12:42:49;22.70;95.80
22145;DHT22;11238;48.730;11.566;2023-09-19T12:45:16;22.90;95.50
22145;DHT22;11238;48.730;11.566;2023-09-19T12:53:37;23.00;94.70
22145;DHT22;11238;48.730;11.566;2023-09-19T12:56:09;22.90;93.60
22145;DHT22;11238;48.730;11.566;2023-09-19T12:58:52;23.10;93.80
22145;DHT22;11238;48.730;11.566;2023-09-19T13:01:23;23.20;94.00
22145;DHT22;11238;48.730;11.566;2023-09-19T13:04:21;23.30;93.10
22145;DHT22;11238;48.730;11.566;2023-09-19T13:06:56;23.10;92.70
22145;DHT22;11238;48.730;11.566;2023-09-19T13:09:26;23.00;93.50
22145;DHT22;11238;48.730;11.566;2023-09-19T13:12:00;22.90;93.30
22145;DHT22;11238;48.730;11.566;2023-09-19T13:14:29;22.80;93.90
22145;DHT22;11238;48.730;11.566;2023-09-19T13:16:58;23.00;93.20
22145;DHT22;11238;48.730;11.566;2023-09-19T13:19:44;23.10;92.80
22145;DHT22;11238;48.730;11.566;2023-09-19T13:22:42;23.30;91.60
22145;DHT22;11238;48.730;11.566;2023-09-19T13:25:13;23.50;91.40
22145;DHT22;11238;48.730;11.566;2023-09-19T13:27:42;23.20;91.80
22145;DHT22;11238;48.730;11.566;2023-09-19T13:30:08;23.30;91.80
22145;DHT22;11238;48.730;11.566;2023-09-19T13:32:35;23.00;91.20
22145;DHT22;11238;48.730;11.566;2023-09-19T13:35:01;22.70;91.40
22145;DHT22;11238;48.730;11.566;2023-09-19T13:37:26;22.70;91.30
22145;DHT22;11238;48.730;11.566;2023-09-19T13:39:52;22.70;91.60
22145;DHT22;11238;48.730;11.566;2023-09-19T13:42:19;22.90;91.90
22145;DHT22;11238;48.730;11.566;2023-09-19T13:44:47;22.90;91.00
22145;DHT22;11238;48.730;11.566;2023-09-19T13:47:13;23.10;91.10
22145;DHT22;11238;48.730;11.566;2023-09-19T13:49:41;23.50;91.40
22145;DHT22;11238;48.730;11.566;2023-09-19T13:52:08;23.60;88.80
22145;DHT22;11238;48.730;11.566;2023-09-19T13:54:34;23.50;89.10
22145;DHT22;11238;48.730;11.566;2023-09-19T13:57:01;23.40;87.80
22145;DHT22;11238;48.730;11.566;2023-09-19T13:59:26;23.40;87.10
22145;DHT22;11238;48.730;11.566;2023-09-19T14:01:54;23.40;84.90
22145;DHT22;11238;48.730;11.566;2023-09-19T14:04:21;23.50;83.80
22145;DHT22;11238;48.730;11.566;2023-09-19T14:06:47;23.70;84.20
22145;DHT22;11238;48.730;11.566;2023-09-19T14:09:13;23.80;83.60
22145;DHT22;11238;48.730;11.566;2023-09-19T14:11:39;23.70;82.20
22145;DHT22;11238;48.730;11.566;2023-09-19T14:14:05;23.60;81.90
22145;DHT22;11238;48.730;11.566;2023-09-19T14:16:31;23.50;82.30
22145;DHT22;11238;48.730;11.566;2023-09-19T14:18:58;23.70;81.20
22145;DHT22;11238;48.730;11.566;2023-09-19T14:21:25;23.80;81.00
22145;DHT22;11238;48.730;11.566;2023-09-19T14:23:51;24.00;81.90
22145;DHT22;11238;48.730;11.566;2023-09-19T14:26:17;23.90;80.50
22145;DHT22;11238;48.730;11.566;2023-09-19T14:28:44;23.90;78.80
22145;DHT22;11238;48.730;11.566;2023-09-19T14:31:11;23.90;79.00
22145;DHT22;11238;48.730;11.566;2023-09-19T14:33:37;23.70;79.70
22145;DHT22;11238;48.730;11.566;2023-09-19T14:36:08;23.60;78.50
22145;DHT22;11238;48.730;11.566;2023-09-19T14:38:36;23.70;78.10
22145;DHT22;11238;48.730;11.566;2023-09-19T14:41:03;23.60;77.80
22145;DHT22;11238;48.730;11.566;2023-09-19T14:43:30;23.60;77.80
22145;DHT22;11238;48.730;11.566;2023-09-19T14:45:56;23.70;78.30
22145;DHT22;11238;48.730;11.566;2023-09-19T14:48:26;23.70;78.40
22145;DHT22;11238;48.730;11.566;2023-09-19T14:50:52;23.90;77.20
22145;DHT22;11238;48.730;11.566;2023-09-19T14:53:18;23.80;76.20
22145;DHT22;11238;48.730;11.566;2023-09-19T14:55:44;23.60;77.80
22145;DHT22;11238;48.730;11.566;2023-09-19T14:58:13;23.60;77.40
22145;DHT22;11238;48.730;11.566;2023-09-19T15:00:39;23.80;77.90
22145;DHT22;11238;48.730;11.566;2023-09-19T15:03:05;23.80;78.10
22145;DHT22;11238;48.730;11.566;2023-09-19T15:05:32;23.60;77.10
22145;DHT22;11238;48.730;11.566;2023-09-19T15:07:59;23.60;77.50
22145;DHT22;11238;48.730;11.566;2023-09-19T15:10:25;23.80;77.50
22145;DHT22;11238;48.730;11.566;2023-09-19T15:12:51;23.80;77.40
22145;DHT22;11238;48.730;11.566;2023-09-19T15:15:17;23.90;76.70
22145;DHT22;11238;48.730;11.566;2023-09-19T15:17:43;23.80;77.10
22145;DHT22;11238;48.730;11.566;2023-09-19T15:20:09;23.70;78.80
22145;DHT22;11238;48.730;11.566;2023-09-19T15:22:40;23.60;79.00
22145;DHT22;11238;48.730;11.566;2023-09-19T15:25:08;23.50;79.80
22145;DHT22;11238;48.730;11.566;2023-09-19T15:27:34;23.30;78.50
22145;DHT22;11238;48.730;11.566;2023-09-19T15:30:03;23.20;79.10
22145;DHT22;11238;48.730;11.566;2023-09-19T15:32:30;23.00;79.80
22145;DHT22;11238;48.730;11.566;2023-09-19T15:34:56;22.90;80.00
22145;DHT22;11238;48.730;11.566;2023-09-19T15:37:22;22.80;80.10
22145;DHT22;11238;48.730;11.566;2023-09-19T15:39:50;22.80;81.40
22145;DHT22;11238;48.730;11.566;2023-09-19T15:42:18;22.70;81.70
22145;DHT22;11238;48.730;11.566;2023-09-19T15:44:44;22.70;81.30
22145;DHT22;11238;48.730;11.566;2023-09-19T15:47:12;22.60;80.90
22145;DHT22;11238;48.730;11.566;2023-09-19T15:49:39;22.50;81.50
22145;DHT22;11238;48.730;11.566;2023-09-19T15:52:05;22.40;82.70
22145;DHT22;11238;48.730;11.566;2023-09-19T15:54:30;22.30;83.90
22145;DHT22;11238;48.730;11.566;2023-09-19T15:56:59;22.40;84.20
22145;DHT22;11238;48.730;11.566;2023-09-19T15:59:31;22.40;84.80
22145;DHT22;11238;48.730;11.566;2023-09-19T16:01:57;22.30;86.40
22145;DHT22;11238;48.730;11.566;2023-09-19T16:07:55;22.30;87.80
22145;DHT22;11238;48.730;11.566;2023-09-19T16:10:21;22.30;89.20
22145;DHT22;11238;48.730;11.566;2023-09-19T16:12:49;22.30;88.70
22145;DHT22;11238;48.730;11.566;2023-09-19T16:15:16;22.30;87.10
22145;DHT22;11238;48.730;11.566;2023-09-19T16:17:42;22.20;88.90
22145;DHT22;11238;48.730;11.566;2023-09-19T16:20:07;22.20;88.80